Aviation Digital Data Service (ADDS)

Output produced by METARs form (1201 UTC 19 January 2019)
found at http://www.aviationweather.gov/metar/data/
 
METAR text: KRFD 191154Z 01019KT 1 1/2SM -SN BR OVC022 M08/M10 A3009 RMK AO2 PK WND 01029/1115 TWR VIS 1 3/4 SLP203 4/008 P0000 60013 70030 T10831100 11044 21083 53002
Conditions at: KRFD (ROCKFORD , IL, US) observed 1154 UTC 19 January 2019
Temperature: -8.3°C (17°F)
Dewpoint: -10.0°C (14°F) [RH = 88%]
Pressure (altimeter): 30.09 inches Hg (1019.0 mb)
[Sea-level pressure: 1020.3 mb]
Winds: from the N (10 degrees) at 22 MPH (19 knots; 9.8 m/s)
Visibility: 1.50 miles (2.41 km)
Ceiling: 2200 feet AGL
Clouds: overcast cloud deck at 2200 feet AGL
Weather: -SN BR  (light snow, mist)

METAR text: KRFD 191139Z 01019G28KT 1 1/2SM -SN BR OVC026 M08/M10 A3009 RMK AO2 PK WND 01029/1115 TWR VIS 1 3/4 P0000 T10781100
Conditions at: KRFD (ROCKFORD , IL, US) observed 1139 UTC 19 January 2019
Temperature: -7.8°C (18°F)
Dewpoint: -10.0°C (14°F) [RH = 84%]
Pressure (altimeter): 30.09 inches Hg (1019.0 mb)
Winds: from the N (10 degrees) at 22 MPH (19 knots; 9.8 m/s)
gusting to 32 MPH (28 knots; 14.4 m/s)
Visibility: 1.50 miles (2.41 km)
Ceiling: 2600 feet AGL
Clouds: overcast cloud deck at 2600 feet AGL
Weather: -SN BR  (light snow, mist)

METAR text: KRFD 191117Z 01022G29KT 2SM -SN BR OVC026 M08/M10 A3009 RMK AO2 PK WND 01029/1115 P0000 T10781100
Conditions at: KRFD (ROCKFORD , IL, US) observed 1117 UTC 19 January 2019
Temperature: -7.8°C (18°F)
Dewpoint: -10.0°C (14°F) [RH = 84%]
Pressure (altimeter): 30.09 inches Hg (1019.0 mb)
Winds: from the N (10 degrees) at 25 MPH (22 knots; 11.3 m/s)
gusting to 33 MPH (29 knots; 14.9 m/s)
Visibility: 2.00 miles (3.22 km)
Ceiling: 2600 feet AGL
Clouds: overcast cloud deck at 2600 feet AGL
Weather: -SN BR  (light snow, mist)

METAR text: KRFD 191054Z 36019KT 1 1/4SM -SN BR OVC016 M07/M09 A3009 RMK AO2 SLP202 P0002 T10721094
Conditions at: KRFD (ROCKFORD , IL, US) observed 1054 UTC 19 January 2019
Temperature: -7.2°C (19°F)
Dewpoint: -9.4°C (15°F) [RH = 84%]
Pressure (altimeter): 30.09 inches Hg (1019.0 mb)
[Sea-level pressure: 1020.2 mb]
Winds: from the N (360 degrees) at 22 MPH (19 knots; 9.8 m/s)
Visibility: 1.25 miles (2.01 km)
Ceiling: 1600 feet AGL
Clouds: overcast cloud deck at 1600 feet AGL
Weather: -SN BR  (light snow, mist)

METAR text: KRFD 191040Z 36018G25KT 1 1/2SM -SN BR SCT014 OVC019 M07/M09 A3009 RMK AO2 SFC VIS 2 P0001 T10671089
Conditions at: KRFD (ROCKFORD , IL, US) observed 1040 UTC 19 January 2019
Temperature: -6.7°C (20°F)
Dewpoint: -8.9°C (16°F) [RH = 84%]
Pressure (altimeter): 30.09 inches Hg (1019.0 mb)
Winds: from the N (360 degrees) at 21 MPH (18 knots; 9.3 m/s)
gusting to 29 MPH (25 knots; 12.9 m/s)
Visibility: 1.50 miles (2.41 km)
Ceiling: 1900 feet AGL
Clouds: scattered clouds at 1400 feet AGL
overcast cloud deck at 1900 feet AGL
Weather: -SN BR  (light snow, mist)

METAR text: KRFD 190954Z 02017KT 2SM -SN BR OVC019 M05/M07 A3008 RMK AO2 SLP197 SNINCR 1/7 P0001 T10501067
Conditions at: KRFD (ROCKFORD , IL, US) observed 0954 UTC 19 January 2019
Temperature: -5.0°C (23°F)
Dewpoint: -6.7°C (20°F) [RH = 88%]
Pressure (altimeter): 30.08 inches Hg (1018.7 mb)
[Sea-level pressure: 1019.7 mb]
Winds: from the NNE (20 degrees) at 20 MPH (17 knots; 8.7 m/s)
Visibility: 2.00 miles (3.22 km)
Ceiling: 1900 feet AGL
Clouds: overcast cloud deck at 1900 feet AGL
Weather: -SN BR  (light snow, mist)

METAR text: KRFD 190854Z 03017KT 2SM -SN BR OVC021 M04/M07 A3009 RMK AO2 SLP200 P0001 60010 T10441067 56013
Conditions at: KRFD (ROCKFORD , IL, US) observed 0854 UTC 19 January 2019
Temperature: -4.4°C (24°F)
Dewpoint: -6.7°C (20°F) [RH = 84%]
Pressure (altimeter): 30.09 inches Hg (1019.0 mb)
[Sea-level pressure: 1020.0 mb]
Winds: from the NNE (30 degrees) at 20 MPH (17 knots; 8.7 m/s)
Visibility: 2.00 miles (3.22 km)
Ceiling: 2100 feet AGL
Clouds: overcast cloud deck at 2100 feet AGL
Weather: -SN BR  (light snow, mist)

METAR text: KRFD 190814Z 03013G23KT 2SM -SN BR FEW012 OVC017 M04/M07 A3009 RMK AO2 P0000 T10441067
Conditions at: KRFD (ROCKFORD , IL, US) observed 0814 UTC 19 January 2019
Temperature: -4.4°C (24°F)
Dewpoint: -6.7°C (20°F) [RH = 84%]
Pressure (altimeter): 30.09 inches Hg (1019.0 mb)
Winds: from the NNE (30 degrees) at 15 MPH (13 knots; 6.7 m/s)
gusting to 26 MPH (23 knots; 11.8 m/s)
Visibility: 2.00 miles (3.22 km)
Ceiling: 1700 feet AGL
Clouds: few clouds at 1200 feet AGL
overcast cloud deck at 1700 feet AGL
Weather: -SN BR  (light snow, mist)

METAR text: KRFD 190754Z 03012KT 2SM -SN BR OVC013 M05/M07 A3009 RMK AO2 SLP201 P0003 T10501067
Conditions at: KRFD (ROCKFORD , IL, US) observed 0754 UTC 19 January 2019
Temperature: -5.0°C (23°F)
Dewpoint: -6.7°C (20°F) [RH = 88%]
Pressure (altimeter): 30.09 inches Hg (1019.0 mb)
[Sea-level pressure: 1020.1 mb]
Winds: from the NNE (30 degrees) at 14 MPH (12 knots; 6.2 m/s)
Visibility: 2.00 miles (3.22 km)
Ceiling: 1300 feet AGL
Clouds: overcast cloud deck at 1300 feet AGL
Weather: -SN BR  (light snow, mist)

METAR text: KRFD 190654Z 02011G20KT 2SM -SN BR OVC015 M04/M06 A3011 RMK AO2 SLP208 SNINCR 2/6 P0006 T10441061
Conditions at: KRFD (ROCKFORD , IL, US) observed 0654 UTC 19 January 2019
Temperature: -4.4°C (24°F)
Dewpoint: -6.1°C (21°F) [RH = 88%]
Pressure (altimeter): 30.11 inches Hg (1019.7 mb)
[Sea-level pressure: 1020.8 mb]
Winds: from the NNE (20 degrees) at 13 MPH (11 knots; 5.7 m/s)
gusting to 23 MPH (20 knots; 10.3 m/s)
Visibility: 2.00 miles (3.22 km)
Ceiling: 1500 feet AGL
Clouds: overcast cloud deck at 1500 feet AGL
Weather: -SN BR  (light snow, mist)

METAR text: KRFD 190645Z 03014G20KT 1/2SM R01/P6000FT SN FZFG VV015 M04/M06 A3011 RMK AO2 TWR VIS 2 P0005 T10441061
Conditions at: KRFD (ROCKFORD , IL, US) observed 0645 UTC 19 January 2019
Temperature: -4.4°C (24°F)
Dewpoint: -6.1°C (21°F) [RH = 88%]
Pressure (altimeter): 30.11 inches Hg (1019.7 mb)
Winds: from the NNE (30 degrees) at 16 MPH (14 knots; 7.2 m/s)
gusting to 23 MPH (20 knots; 10.3 m/s)
Visibility: 0.50 miles (0.80 km)
Ceiling: indefinite ceiling with vertical visibility of 1500 feet AGL
Clouds: obscured sky
Weather: SN FZFG  (moderate snow, freezing fog)

METAR text: KRFD 190629Z 03014KT 1/2SM R01/6000VP6000FT SN BR VV011 M04/M06 A3011 RMK AO2 SFC VIS 3/4 P0002 T10441061
Conditions at: KRFD (ROCKFORD , IL, US) observed 0629 UTC 19 January 2019
Temperature: -4.4°C (24°F)
Dewpoint: -6.1°C (21°F) [RH = 88%]
Pressure (altimeter): 30.11 inches Hg (1019.7 mb)
Winds: from the NNE (30 degrees) at 16 MPH (14 knots; 7.2 m/s)
Visibility: 0.50 miles (0.80 km)
Ceiling: indefinite ceiling with vertical visibility of 1100 feet AGL
Clouds: obscured sky
Weather: SN BR  (moderate snow, mist)

METAR text: KRFD 190554Z 04012G20KT 1/2SM R01/4000V5000FT SN FZFG VV006 M04/M06 A3013 RMK AO2 SLP213 SNINCR 1/4 4/004 P0007 60014 T10441061 11039 21050 410111050 56009
Conditions at: KRFD (ROCKFORD , IL, US) observed 0554 UTC 19 January 2019
Temperature: -4.4°C (24°F)
Dewpoint: -6.1°C (21°F) [RH = 88%]
Pressure (altimeter): 30.13 inches Hg (1020.4 mb)
[Sea-level pressure: 1021.3 mb]
Winds: from the NE (40 degrees) at 14 MPH (12 knots; 6.2 m/s)
gusting to 23 MPH (20 knots; 10.3 m/s)
Visibility: 0.50 miles (0.80 km)
Ceiling: indefinite ceiling with vertical visibility of 600 feet AGL
Clouds: obscured sky
Weather: SN FZFG  (moderate snow, freezing fog)

METAR text: KRFD 190454Z COR 04012KT 3/4SM R01/4500V5500FT -SN BR VV009 M05/M07 A3013 RMK AO2 TWR VIS 1 SLP214 SNINCR 1/3 P0005 T10501067
Conditions at: KRFD (ROCKFORD , IL, US) observed 0454 UTC 19 January 2019
Temperature: -5.0°C (23°F)
Dewpoint: -6.7°C (20°F) [RH = 88%]
Pressure (altimeter): 30.13 inches Hg (1020.4 mb)
[Sea-level pressure: 1021.4 mb]
Winds: from the NE (40 degrees) at 14 MPH (12 knots; 6.2 m/s)
Visibility: 0.75 miles (1.21 km)
Ceiling: indefinite ceiling with vertical visibility of 900 feet AGL
Clouds: obscured sky
Weather: -SN BR  (light snow, mist)

METAR text: KRFD 190431Z 05013KT 3/4SM R01/4000V5500FT -SN BR VV009 M05/M07 A3013 RMK AO2 TWR VIS 1 1/2 P0002 T10501067
Conditions at: KRFD (ROCKFORD , IL, US) observed 0431 UTC 19 January 2019
Temperature: -5.0°C (23°F)
Dewpoint: -6.7°C (20°F) [RH = 88%]
Pressure (altimeter): 30.13 inches Hg (1020.4 mb)
Winds: from the NE (50 degrees) at 15 MPH (13 knots; 6.7 m/s)
Visibility: 0.75 miles (1.21 km)
Ceiling: indefinite ceiling with vertical visibility of 900 feet AGL
Clouds: obscured sky
Weather: -SN BR  (light snow, mist)

METAR text: KRFD 190354Z 04015KT 1SM R01/P6000FT -SN BR VV014 M05/M07 A3013 RMK AO2 TWR VIS 1 1/2 SLP212 SNB06 P0002 T10501072
Conditions at: KRFD (ROCKFORD , IL, US) observed 0354 UTC 19 January 2019
Temperature: -5.0°C (23°F)
Dewpoint: -7.2°C (19°F) [RH = 85%]
Pressure (altimeter): 30.13 inches Hg (1020.4 mb)
[Sea-level pressure: 1021.2 mb]
Winds: from the NE (40 degrees) at 17 MPH (15 knots; 7.7 m/s)
Visibility: 1.00 miles (1.61 km)
Ceiling: indefinite ceiling with vertical visibility of 1400 feet AGL
Clouds: obscured sky
Weather: -SN BR  (light snow, mist)

METAR text: KRFD 190317Z 05015KT 1 1/2SM -SN OVC019 M05/M08 A3014 RMK AO2 SNB06 P0000 T10501078
Conditions at: KRFD (ROCKFORD , IL, US) observed 0317 UTC 19 January 2019
Temperature: -5.0°C (23°F)
Dewpoint: -7.8°C (18°F) [RH = 81%]
Pressure (altimeter): 30.14 inches Hg (1020.7 mb)
Winds: from the NE (50 degrees) at 17 MPH (15 knots; 7.7 m/s)
Visibility: 1.50 miles (2.41 km)
Ceiling: 1900 feet AGL
Clouds: overcast cloud deck at 1900 feet AGL
Weather: -SN  (light snow)

METAR text: KRFD 190254Z 04014KT 8SM OVC019 M05/M08 A3016 RMK AO2 SLP222 T10501078 53005
Conditions at: KRFD (ROCKFORD , IL, US) observed 0254 UTC 19 January 2019
Temperature: -5.0°C (23°F)
Dewpoint: -7.8°C (18°F) [RH = 81%]
Pressure (altimeter): 30.16 inches Hg (1021.4 mb)
[Sea-level pressure: 1022.2 mb]
Winds: from the NE (40 degrees) at 16 MPH (14 knots; 7.2 m/s)
Visibility: 8 miles (13 km)
Ceiling: 1900 feet AGL
Clouds: overcast cloud deck at 1900 feet AGL
Weather: no significant weather observed at this time

METAR text: KRFD 190154Z 05011KT 10SM BKN016 OVC024 M05/M08 A3015 RMK AO2 SLP220 T10501078
Conditions at: KRFD (ROCKFORD , IL, US) observed 0154 UTC 19 January 2019
Temperature: -5.0°C (23°F)
Dewpoint: -7.8°C (18°F) [RH = 81%]
Pressure (altimeter): 30.15 inches Hg (1021.1 mb)
[Sea-level pressure: 1022.0 mb]
Winds: from the NE (50 degrees) at 13 MPH (11 knots; 5.7 m/s)
Visibility: 10 or more miles (16+ km)
Ceiling: 1600 feet AGL
Clouds: broken clouds at 1600 feet AGL
overcast cloud deck at 2400 feet AGL
Weather: no significant weather observed at this time

METAR text: KRFD 190054Z 07014KT 10SM FEW017 OVC024 M04/M08 A3014 RMK AO2 SLP219 T10441078
Conditions at: KRFD (ROCKFORD , IL, US) observed 0054 UTC 19 January 2019
Temperature: -4.4°C (24°F)
Dewpoint: -7.8°C (18°F) [RH = 77%]
Pressure (altimeter): 30.14 inches Hg (1020.7 mb)
[Sea-level pressure: 1021.9 mb]
Winds: from the ENE (70 degrees) at 16 MPH (14 knots; 7.2 m/s)
Visibility: 10 or more miles (16+ km)
Ceiling: 2400 feet AGL
Clouds: few clouds at 1700 feet AGL
overcast cloud deck at 2400 feet AGL
Weather: no significant weather observed at this time

METAR text: KRFD 190020Z 07013KT 10SM BKN016 OVC022 M04/M08 A3014 RMK AO2 T10441078
Conditions at: KRFD (ROCKFORD , IL, US) observed 0020 UTC 19 January 2019
Temperature: -4.4°C (24°F)
Dewpoint: -7.8°C (18°F) [RH = 77%]
Pressure (altimeter): 30.14 inches Hg (1020.7 mb)
Winds: from the ENE (70 degrees) at 15 MPH (13 knots; 6.7 m/s)
Visibility: 10 or more miles (16+ km)
Ceiling: 1600 feet AGL
Clouds: broken clouds at 1600 feet AGL
overcast cloud deck at 2200 feet AGL
Weather: no significant weather observed at this time

METAR text: KRFD 182354Z 07008KT 8SM OVC013 M04/M07 A3014 RMK AO2 SLP216 4/002 60003 T10391072 11033 21044 56005
Conditions at: KRFD (ROCKFORD , IL, US) observed 2354 UTC 18 January 2019
Temperature: -3.9°C (25°F)
Dewpoint: -7.2°C (19°F) [RH = 78%]
Pressure (altimeter): 30.14 inches Hg (1020.7 mb)
[Sea-level pressure: 1021.6 mb]
Winds: from the ENE (70 degrees) at 9 MPH (8 knots; 4.1 m/s)
Visibility: 8 miles (13 km)
Ceiling: 1300 feet AGL
Clouds: overcast cloud deck at 1300 feet AGL
Weather: no significant weather observed at this time

METAR text: KRFD 182254Z 06012KT 7SM FEW013 BKN026 OVC110 M04/M07 A3014 RMK AO2 SNE2159 SLP217 P0000 T10391072
Conditions at: KRFD (ROCKFORD , IL, US) observed 2254 UTC 18 January 2019
Temperature: -3.9°C (25°F)
Dewpoint: -7.2°C (19°F) [RH = 78%]
Pressure (altimeter): 30.14 inches Hg (1020.7 mb)
[Sea-level pressure: 1021.7 mb]
Winds: from the ENE (60 degrees) at 14 MPH (12 knots; 6.2 m/s)
Visibility: 7 miles (11 km)
Ceiling: 2600 feet AGL
Clouds: few clouds at 1300 feet AGL
broken clouds at 2600 feet AGL
overcast cloud deck at 11000 feet AGL
Weather: no significant weather observed at this time

METAR text: KRFD 182250Z 07011KT 7SM FEW013 OVC027 M04/M07 A3014 RMK AO2 SNE2159 P0000
Conditions at: KRFD (ROCKFORD , IL, US) observed 2250 UTC 18 January 2019
Temperature: -4.0°C (25°F)
Dewpoint: -7.0°C (19°F) [RH = 80%]
Pressure (altimeter): 30.14 inches Hg (1020.7 mb)
Winds: from the ENE (70 degrees) at 13 MPH (11 knots; 5.7 m/s)
Visibility: 7 miles (11 km)
Ceiling: 2700 feet AGL
Clouds: few clouds at 1300 feet AGL
overcast cloud deck at 2700 feet AGL
Weather: no significant weather observed at this time

METAR text: KRFD 182154Z 06013KT 7SM -SN FEW014 BKN070 OVC100 M04/M07 A3016 RMK AO2 SLP222 P0000 T10391072
Conditions at: KRFD (ROCKFORD , IL, US) observed 2154 UTC 18 January 2019
Temperature: -3.9°C (25°F)
Dewpoint: -7.2°C (19°F) [RH = 78%]
Pressure (altimeter): 30.16 inches Hg (1021.4 mb)
[Sea-level pressure: 1022.2 mb]
Winds: from the ENE (60 degrees) at 15 MPH (13 knots; 6.7 m/s)
Visibility: 7 miles (11 km)
Ceiling: 7000 feet AGL
Clouds: few clouds at 1400 feet AGL
broken clouds at 7000 feet AGL
overcast cloud deck at 10000 feet AGL
Weather: -SN  (light snow)

METAR text: KRFD 182130Z 06011KT 5SM -SN BR SCT024 BKN070 OVC100 M04/M07 A3016 RMK AO2 P0000 T10441067
Conditions at: KRFD (ROCKFORD , IL, US) observed 2130 UTC 18 January 2019
Temperature: -4.4°C (24°F)
Dewpoint: -6.7°C (20°F) [RH = 84%]
Pressure (altimeter): 30.16 inches Hg (1021.4 mb)
Winds: from the ENE (60 degrees) at 13 MPH (11 knots; 5.7 m/s)
Visibility: 5 miles ( 8 km)
Ceiling: 7000 feet AGL
Clouds: scattered clouds at 2400 feet AGL
broken clouds at 7000 feet AGL
overcast cloud deck at 10000 feet AGL
Weather: -SN BR  (light snow, mist)

METAR text: KRFD 182109Z 07011KT 3SM -SN BR BKN026 BKN034 OVC070 M04/M07 A3016 RMK AO2 P0000 T10441067
Conditions at: KRFD (ROCKFORD , IL, US) observed 2109 UTC 18 January 2019
Temperature: -4.4°C (24°F)
Dewpoint: -6.7°C (20°F) [RH = 84%]
Pressure (altimeter): 30.16 inches Hg (1021.4 mb)
Winds: from the ENE (70 degrees) at 13 MPH (11 knots; 5.7 m/s)
Visibility: 3 miles ( 5 km)
Ceiling: 2600 feet AGL
Clouds: broken clouds at 2600 feet AGL
broken clouds at 3400 feet AGL
overcast cloud deck at 7000 feet AGL
Weather: -SN BR  (light snow, mist)

METAR text: KRFD 182054Z 06009KT 2SM -SN BR BKN022 BKN034 OVC065 M04/M07 A3016 RMK AO2 SLP222 P0002 60003 T10441067 55015
Conditions at: KRFD (ROCKFORD , IL, US) observed 2054 UTC 18 January 2019
Temperature: -4.4°C (24°F)
Dewpoint: -6.7°C (20°F) [RH = 84%]
Pressure (altimeter): 30.16 inches Hg (1021.4 mb)
[Sea-level pressure: 1022.2 mb]
Winds: from the ENE (60 degrees) at 10 MPH (9 knots; 4.6 m/s)
Visibility: 2.00 miles (3.22 km)
Ceiling: 2200 feet AGL
Clouds: broken clouds at 2200 feet AGL
broken clouds at 3400 feet AGL
overcast cloud deck at 6500 feet AGL
Weather: -SN BR  (light snow, mist)

METAR text: KRFD 182015Z 04010KT 3/4SM R01/3500V4000FT -SN VV015 M04/M07 A3017 RMK AO2 P0001 T10391067
Conditions at: KRFD (ROCKFORD , IL, US) observed 2015 UTC 18 January 2019
Temperature: -3.9°C (25°F)
Dewpoint: -6.7°C (20°F) [RH = 81%]
Pressure (altimeter): 30.17 inches Hg (1021.8 mb)
Winds: from the NE (40 degrees) at 12 MPH (10 knots; 5.1 m/s)
Visibility: 0.75 miles (1.21 km)
Ceiling: indefinite ceiling with vertical visibility of 1500 feet AGL
Clouds: obscured sky
Weather: -SN  (light snow)

METAR text: KRFD 182007Z 04011KT 1SM R01/4000V5500FT -SN FEW013 BKN018 OVC030 M04/M07 A3016 RMK AO2 TWR VIS 1 1/2 P0001 T10391067
Conditions at: KRFD (ROCKFORD , IL, US) observed 2007 UTC 18 January 2019
Temperature: -3.9°C (25°F)
Dewpoint: -6.7°C (20°F) [RH = 81%]
Pressure (altimeter): 30.16 inches Hg (1021.4 mb)
Winds: from the NE (40 degrees) at 13 MPH (11 knots; 5.7 m/s)
Visibility: 1.00 miles (1.61 km)
Ceiling: 1800 feet AGL
Clouds: few clouds at 1300 feet AGL
broken clouds at 1800 feet AGL
overcast cloud deck at 3000 feet AGL
Weather: -SN  (light snow)

METAR text: KRFD 181954Z 05012KT 1 1/2SM R01/6000VP6000FT -SN BKN022 OVC032 M04/M07 A3015 RMK AO2 SLP221 P0001 T10391067
Conditions at: KRFD (ROCKFORD , IL, US) observed 1954 UTC 18 January 2019
Temperature: -3.9°C (25°F)
Dewpoint: -6.7°C (20°F) [RH = 81%]
Pressure (altimeter): 30.15 inches Hg (1021.1 mb)
[Sea-level pressure: 1022.1 mb]
Winds: from the NE (50 degrees) at 14 MPH (12 knots; 6.2 m/s)
Visibility: 1.50 miles (2.41 km)
Ceiling: 2200 feet AGL
Clouds: broken clouds at 2200 feet AGL
overcast cloud deck at 3200 feet AGL
Weather: -SN  (light snow)

METAR text: KRFD 181914Z 05010KT 1 1/2SM R01/5000VP6000FT -SN OVC020 M04/M07 A3017 RMK AO2 P0000 T10391067
Conditions at: KRFD (ROCKFORD , IL, US) observed 1914 UTC 18 January 2019
Temperature: -3.9°C (25°F)
Dewpoint: -6.7°C (20°F) [RH = 81%]
Pressure (altimeter): 30.17 inches Hg (1021.8 mb)
Winds: from the NE (50 degrees) at 12 MPH (10 knots; 5.1 m/s)
Visibility: 1.50 miles (2.41 km)
Ceiling: 2000 feet AGL
Clouds: overcast cloud deck at 2000 feet AGL
Weather: -SN  (light snow)

METAR text: KRFD 181901Z 04010KT 2SM -SN OVC020 M03/M07 A3018 RMK AO2 SFC VIS 3 P0000 T10331072
Conditions at: KRFD (ROCKFORD , IL, US) observed 1901 UTC 18 January 2019
Temperature: -3.3°C (26°F)
Dewpoint: -7.2°C (19°F) [RH = 74%]
Pressure (altimeter): 30.18 inches Hg (1022.1 mb)
Winds: from the NE (40 degrees) at 12 MPH (10 knots; 5.1 m/s)
Visibility: 2.00 miles (3.22 km)
Ceiling: 2000 feet AGL
Clouds: overcast cloud deck at 2000 feet AGL
Weather: -SN  (light snow)

METAR text: KRFD 181854Z 05010KT 5SM -SN OVC018 M03/M08 A3018 RMK AO2 SNB38 SLP229 P0000 T10331078
Conditions at: KRFD (ROCKFORD , IL, US) observed 1854 UTC 18 January 2019
Temperature: -3.3°C (26°F)
Dewpoint: -7.8°C (18°F) [RH = 71%]
Pressure (altimeter): 30.18 inches Hg (1022.1 mb)
[Sea-level pressure: 1022.9 mb]
Winds: from the NE (50 degrees) at 12 MPH (10 knots; 5.1 m/s)
Visibility: 5 miles ( 8 km)
Ceiling: 1800 feet AGL
Clouds: overcast cloud deck at 1800 feet AGL
Weather: -SN  (light snow)

METAR text: KRFD 181754Z 04009KT 10SM OVC018 M03/M08 A3020 RMK AO2 SLP237 4/002 933002 T10331078 11022 21033 50009
Conditions at: KRFD (ROCKFORD , IL, US) observed 1754 UTC 18 January 2019
Temperature: -3.3°C (26°F)
Dewpoint: -7.8°C (18°F) [RH = 71%]
Pressure (altimeter): 30.20 inches Hg (1022.8 mb)
[Sea-level pressure: 1023.7 mb]
Winds: from the NE (40 degrees) at 10 MPH (9 knots; 4.6 m/s)
Visibility: 10 or more miles (16+ km)
Ceiling: 1800 feet AGL
Clouds: overcast cloud deck at 1800 feet AGL
Weather: no significant weather observed at this time

METAR text: KRFD 181654Z 04010KT 9SM OVC019 M03/M08 A3021 RMK AO2 SLP238 T10331078
Conditions at: KRFD (ROCKFORD , IL, US) observed 1654 UTC 18 January 2019
Temperature: -3.3°C (26°F)
Dewpoint: -7.8°C (18°F) [RH = 71%]
Pressure (altimeter): 30.21 inches Hg (1023.1 mb)
[Sea-level pressure: 1023.8 mb]
Winds: from the NE (40 degrees) at 12 MPH (10 knots; 5.1 m/s)
Visibility: 9 miles (14 km)
Ceiling: 1900 feet AGL
Clouds: overcast cloud deck at 1900 feet AGL
Weather: no significant weather observed at this time

METAR text: KRFD 181554Z 05005KT 9SM OVC018 M03/M07 A3020 RMK AO2 SLP234 T10281067
Conditions at: KRFD (ROCKFORD , IL, US) observed 1554 UTC 18 January 2019
Temperature: -2.8°C (27°F)
Dewpoint: -6.7°C (20°F) [RH = 74%]
Pressure (altimeter): 30.20 inches Hg (1022.8 mb)
[Sea-level pressure: 1023.4 mb]
Winds: from the NE (50 degrees) at 6 MPH (5 knots; 2.6 m/s)
Visibility: 9 miles (14 km)
Ceiling: 1800 feet AGL
Clouds: overcast cloud deck at 1800 feet AGL
Weather: no significant weather observed at this time

METAR text: KRFD 181454Z VRB03KT 8SM OVC019 M02/M07 A3017 RMK AO2 SLP226 T10221072 52014
Conditions at: KRFD (ROCKFORD , IL, US) observed 1454 UTC 18 January 2019
Temperature: -2.2°C (28°F)
Dewpoint: -7.2°C (19°F) [RH = 69%]
Pressure (altimeter): 30.17 inches Hg (1021.8 mb)
[Sea-level pressure: 1022.6 mb]
Winds: variable direction winds at 3 MPH (3 knots; 1.5 m/s)
Visibility: 8 miles (13 km)
Ceiling: 1900 feet AGL
Clouds: overcast cloud deck at 1900 feet AGL
Weather: no significant weather observed at this time

METAR text: KRFD 181354Z 34005KT 8SM OVC018 M03/M07 A3017 RMK AO2 SLP224 T10281067
Conditions at: KRFD (ROCKFORD , IL, US) observed 1354 UTC 18 January 2019
Temperature: -2.8°C (27°F)
Dewpoint: -6.7°C (20°F) [RH = 74%]
Pressure (altimeter): 30.17 inches Hg (1021.8 mb)
[Sea-level pressure: 1022.4 mb]
Winds: from the NNW (340 degrees) at 6 MPH (5 knots; 2.6 m/s)
Visibility: 8 miles (13 km)
Ceiling: 1800 feet AGL
Clouds: overcast cloud deck at 1800 feet AGL
Weather: no significant weather observed at this time

METAR text: KRFD 181254Z 34004KT 10SM OVC018 M03/M07 A3014 RMK AO2 SLP215 T10281067
Conditions at: KRFD (ROCKFORD , IL, US) observed 1254 UTC 18 January 2019
Temperature: -2.8°C (27°F)
Dewpoint: -6.7°C (20°F) [RH = 74%]
Pressure (altimeter): 30.14 inches Hg (1020.7 mb)
[Sea-level pressure: 1021.5 mb]
Winds: from the NNW (340 degrees) at 5 MPH (4 knots; 2.1 m/s)
Visibility: 10 or more miles (16+ km)
Ceiling: 1800 feet AGL
Clouds: overcast cloud deck at 1800 feet AGL
Weather: no significant weather observed at this time

METAR text: KRFD 181154Z 30003KT 10SM OVC019 M02/M07 A3013 RMK AO2 SLP212 4/002 T10221067 11011 21022 53001
Conditions at: KRFD (ROCKFORD , IL, US) observed 1154 UTC 18 January 2019
Temperature: -2.2°C (28°F)
Dewpoint: -6.7°C (20°F) [RH = 71%]
Pressure (altimeter): 30.13 inches Hg (1020.4 mb)
[Sea-level pressure: 1021.2 mb]
Winds: from the WNW (300 degrees) at 3 MPH (3 knots; 1.5 m/s)
Visibility: 10 or more miles (16+ km)
Ceiling: 1900 feet AGL
Clouds: overcast cloud deck at 1900 feet AGL
Weather: no significant weather observed at this time

METAR text: KRFD 181054Z 33004KT 10SM OVC019 M02/M06 A3012 RMK AO2 SLP207 T10221061
Conditions at: KRFD (ROCKFORD , IL, US) observed 1054 UTC 18 January 2019
Temperature: -2.2°C (28°F)
Dewpoint: -6.1°C (21°F) [RH = 75%]
Pressure (altimeter): 30.12 inches Hg (1020.1 mb)
[Sea-level pressure: 1020.7 mb]
Winds: from the NNW (330 degrees) at 5 MPH (4 knots; 2.1 m/s)
Visibility: 10 or more miles (16+ km)
Ceiling: 1900 feet AGL
Clouds: overcast cloud deck at 1900 feet AGL
Weather: no significant weather observed at this time

METAR text: KRFD 180954Z 33004KT 10SM OVC020 M02/M06 A3012 RMK AO2 SLP210 T10221061
Conditions at: KRFD (ROCKFORD , IL, US) observed 0954 UTC 18 January 2019
Temperature: -2.2°C (28°F)
Dewpoint: -6.1°C (21°F) [RH = 75%]
Pressure (altimeter): 30.12 inches Hg (1020.1 mb)
[Sea-level pressure: 1021.0 mb]
Winds: from the NNW (330 degrees) at 5 MPH (4 knots; 2.1 m/s)
Visibility: 10 or more miles (16+ km)
Ceiling: 2000 feet AGL
Clouds: overcast cloud deck at 2000 feet AGL
Weather: no significant weather observed at this time

METAR text: KRFD 180854Z 32008KT 10SM OVC020 M02/M06 A3013 RMK AO2 SLP211 T10171061 53009
Conditions at: KRFD (ROCKFORD , IL, US) observed 0854 UTC 18 January 2019
Temperature: -1.7°C (29°F)
Dewpoint: -6.1°C (21°F) [RH = 72%]
Pressure (altimeter): 30.13 inches Hg (1020.4 mb)
[Sea-level pressure: 1021.1 mb]
Winds: from the NW (320 degrees) at 9 MPH (8 knots; 4.1 m/s)
Visibility: 10 or more miles (16+ km)
Ceiling: 2000 feet AGL
Clouds: overcast cloud deck at 2000 feet AGL
Weather: no significant weather observed at this time

METAR text: KRFD 180754Z 31007KT 8SM OVC020 M02/M06 A3012 RMK AO2 SLP208 T10171056
Conditions at: KRFD (ROCKFORD , IL, US) observed 0754 UTC 18 January 2019
Temperature: -1.7°C (29°F)
Dewpoint: -5.6°C (22°F) [RH = 75%]
Pressure (altimeter): 30.12 inches Hg (1020.1 mb)
[Sea-level pressure: 1020.8 mb]
Winds: from the NW (310 degrees) at 8 MPH (7 knots; 3.6 m/s)
Visibility: 8 miles (13 km)
Ceiling: 2000 feet AGL
Clouds: overcast cloud deck at 2000 feet AGL
Weather: no significant weather observed at this time

METAR text: KRFD 180654Z 31007KT 8SM OVC021 M01/M04 A3010 RMK AO2 SLP203 T10111044
Conditions at: KRFD (ROCKFORD , IL, US) observed 0654 UTC 18 January 2019
Temperature: -1.1°C (30°F)
Dewpoint: -4.4°C (24°F) [RH = 78%]
Pressure (altimeter): 30.10 inches Hg (1019.4 mb)
[Sea-level pressure: 1020.3 mb]
Winds: from the NW (310 degrees) at 8 MPH (7 knots; 3.6 m/s)
Visibility: 8 miles (13 km)
Ceiling: 2100 feet AGL
Clouds: overcast cloud deck at 2100 feet AGL
Weather: no significant weather observed at this time

METAR text: KRFD 180554Z 30006KT 8SM OVC023 M01/M04 A3010 RMK AO2 SLP201 4/002 T10111044 11006 21011 400061028 50010
Conditions at: KRFD (ROCKFORD , IL, US) observed 0554 UTC 18 January 2019
Temperature: -1.1°C (30°F)
Dewpoint: -4.4°C (24°F) [RH = 78%]
Pressure (altimeter): 30.10 inches Hg (1019.4 mb)
[Sea-level pressure: 1020.1 mb]
Winds: from the WNW (300 degrees) at 7 MPH (6 knots; 3.1 m/s)
Visibility: 8 miles (13 km)
Ceiling: 2300 feet AGL
Clouds: overcast cloud deck at 2300 feet AGL
Weather: no significant weather observed at this time

METAR text: KRFD 180454Z 30010KT 8SM OVC016 M01/M04 A3010 RMK AO2 SLP202 T10061039
Conditions at: KRFD (ROCKFORD , IL, US) observed 0454 UTC 18 January 2019
Temperature: -0.6°C (31°F)
Dewpoint: -3.9°C (25°F) [RH = 78%]
Pressure (altimeter): 30.10 inches Hg (1019.4 mb)
[Sea-level pressure: 1020.2 mb]
Winds: from the WNW (300 degrees) at 12 MPH (10 knots; 5.1 m/s)
Visibility: 8 miles (13 km)
Ceiling: 1600 feet AGL
Clouds: overcast cloud deck at 1600 feet AGL
Weather: no significant weather observed at this time

METAR text: KRFD 180354Z 30008KT 7SM OVC012 M01/M03 A3008 RMK AO2 SLP194 T10061033
Conditions at: KRFD (ROCKFORD , IL, US) observed 0354 UTC 18 January 2019
Temperature: -0.6°C (31°F)
Dewpoint: -3.3°C (26°F) [RH = 82%]
Pressure (altimeter): 30.08 inches Hg (1018.7 mb)
[Sea-level pressure: 1019.4 mb]
Winds: from the WNW (300 degrees) at 9 MPH (8 knots; 4.1 m/s)
Visibility: 7 miles (11 km)
Ceiling: 1200 feet AGL
Clouds: overcast cloud deck at 1200 feet AGL
Weather: no significant weather observed at this time

METAR text: KRFD 180330Z 28006KT 6SM BR OVC014 M01/M03 A3008 RMK AO2 T10061028
Conditions at: KRFD (ROCKFORD , IL, US) observed 0330 UTC 18 January 2019
Temperature: -0.6°C (31°F)
Dewpoint: -2.8°C (27°F) [RH = 85%]
Pressure (altimeter): 30.08 inches Hg (1018.7 mb)
Winds: from the W (280 degrees) at 7 MPH (6 knots; 3.1 m/s)
Visibility: 6 miles (10 km)
Ceiling: 1400 feet AGL
Clouds: overcast cloud deck at 1400 feet AGL
Weather: BR  (mist)

METAR text: KRFD 180254Z 29005KT 6SM BR OVC015 M01/M03 A3007 RMK AO2 SLP191 T10061028 51004
Conditions at: KRFD (ROCKFORD , IL, US) observed 0254 UTC 18 January 2019
Temperature: -0.6°C (31°F)
Dewpoint: -2.8°C (27°F) [RH = 85%]
Pressure (altimeter): 30.07 inches Hg (1018.4 mb)
[Sea-level pressure: 1019.1 mb]
Winds: from the WNW (290 degrees) at 6 MPH (5 knots; 2.6 m/s)
Visibility: 6 miles (10 km)
Ceiling: 1500 feet AGL
Clouds: overcast cloud deck at 1500 feet AGL
Weather: BR  (mist)

METAR text: KRFD 180224Z 29005KT 7SM SCT013 OVC020 M01/M03 A3007 RMK AO2 T10061028
Conditions at: KRFD (ROCKFORD , IL, US) observed 0224 UTC 18 January 2019
Temperature: -0.6°C (31°F)
Dewpoint: -2.8°C (27°F) [RH = 85%]
Pressure (altimeter): 30.07 inches Hg (1018.4 mb)
Winds: from the WNW (290 degrees) at 6 MPH (5 knots; 2.6 m/s)
Visibility: 7 miles (11 km)
Ceiling: 2000 feet AGL
Clouds: scattered clouds at 1300 feet AGL
overcast cloud deck at 2000 feet AGL
Weather: no significant weather observed at this time

METAR text: KRFD 180154Z 30005KT 8SM OVC013 M01/M03 A3007 RMK AO2 SLP190 T10061033
Conditions at: KRFD (ROCKFORD , IL, US) observed 0154 UTC 18 January 2019
Temperature: -0.6°C (31°F)
Dewpoint: -3.3°C (26°F) [RH = 82%]
Pressure (altimeter): 30.07 inches Hg (1018.4 mb)
[Sea-level pressure: 1019.0 mb]
Winds: from the WNW (300 degrees) at 6 MPH (5 knots; 2.6 m/s)
Visibility: 8 miles (13 km)
Ceiling: 1300 feet AGL
Clouds: overcast cloud deck at 1300 feet AGL
Weather: no significant weather observed at this time

METAR text: KRFD 180146Z 30005KT 9SM OVC013 M01/M03 A3006 RMK AO2 T10061033
Conditions at: KRFD (ROCKFORD , IL, US) observed 0146 UTC 18 January 2019
Temperature: -0.6°C (31°F)
Dewpoint: -3.3°C (26°F) [RH = 82%]
Pressure (altimeter): 30.06 inches Hg (1018.0 mb)
Winds: from the WNW (300 degrees) at 6 MPH (5 knots; 2.6 m/s)
Visibility: 9 miles (14 km)
Ceiling: 1300 feet AGL
Clouds: overcast cloud deck at 1300 feet AGL
Weather: no significant weather observed at this time

METAR text: KRFD 180054Z 29007KT 10SM OVC016 M01/M03 A3006 RMK AO2 SLP189 T10061033
Conditions at: KRFD (ROCKFORD , IL, US) observed 0054 UTC 18 January 2019
Temperature: -0.6°C (31°F)
Dewpoint: -3.3°C (26°F) [RH = 82%]
Pressure (altimeter): 30.06 inches Hg (1018.0 mb)
[Sea-level pressure: 1018.9 mb]
Winds: from the WNW (290 degrees) at 8 MPH (7 knots; 3.6 m/s)
Visibility: 10 or more miles (16+ km)
Ceiling: 1600 feet AGL
Clouds: overcast cloud deck at 1600 feet AGL
Weather: no significant weather observed at this time

Forecast for: KRFD (ROCKFORD , IL, US)
Text: KRFD 191133Z 1912/2012 02017G28KT 2SM -SN OVC015
Forecast period: 1200 to 1500 UTC 19 January 2019
Forecast type: FROM: standard forecast or significant change
Winds: from the NNE (20 degrees) at 20 MPH (17 knots; 8.7 m/s)
gusting to 32 MPH (28 knots; 14.4 m/s)
Visibility: 2.00 miles (3.22 km)
Ceiling: 1500 feet AGL
Clouds: overcast cloud deck at 1500 feet AGL
Weather: -SN  (light snow)
Text: TEMPO 1912/1913 1SM -SN OVC010
Forecast period: 1200 to 1300 UTC 19 January 2019
Forecast type: TEMPORARY: The following changes expected for less than half the time period
Visibility: 1.00 miles (1.61 km)
Ceiling: 1000 feet AGL
Clouds: overcast cloud deck at 1000 feet AGL
Weather: -SN  (light snow)
Text: FM191500 02018G29KT 4SM -SN BLSN OVC015
Forecast period: 1500 to 1700 UTC 19 January 2019
Forecast type: FROM: standard forecast or significant change
Winds: from the NNE (20 degrees) at 21 MPH (18 knots; 9.3 m/s)
gusting to 33 MPH (29 knots; 14.9 m/s)
Visibility: 4 miles (6 km)
Ceiling: 1500 feet AGL
Clouds: overcast cloud deck at 1500 feet AGL
Weather: -SN BLSN  (light snow, blowing snow)
Text: FM191700 01017G28KT 6SM BLSN VCSH OVC018
Forecast period: 1700 UTC 19 January 2019 to 0200 UTC 20 January 2019
Forecast type: FROM: standard forecast or significant change
Winds: from the N (10 degrees) at 20 MPH (17 knots; 8.7 m/s)
gusting to 32 MPH (28 knots; 14.4 m/s)
Visibility: 6 miles (10 km)
Ceiling: 1800 feet AGL
Clouds: overcast cloud deck at 1800 feet AGL
Weather: BLSN VCSH  (blowing snow, showers in vicinity)
Text: FM200200 36014G21KT P6SM VCSH SCT015 BKN030
Forecast period: 0200 to 0500 UTC 20 January 2019
Forecast type: FROM: standard forecast or significant change
Winds: from the N (360 degrees) at 16 MPH (14 knots; 7.2 m/s)
gusting to 24 MPH (21 knots; 10.8 m/s)
Visibility: 6 or more miles 10+ km)
Ceiling: 3000 feet AGL
Clouds: scattered clouds at 1500 feet AGL
broken clouds at 3000 feet AGL
Weather: VCSH  (showers in vicinity)
Text: FM200500 35012KT P6SM SCT120 BKN250
Forecast period: 0500 to 1200 UTC 20 January 2019
Forecast type: FROM: standard forecast or significant change
Winds: from the N (350 degrees) at 14 MPH (12 knots; 6.2 m/s)
Visibility: 6 or more miles 10+ km)
Ceiling: 25000 feet AGL
Clouds: scattered clouds at 12000 feet AGL
broken clouds at 25000 feet AGL
Weather: no significant weather forecast for this period